Majadahonda, Spain
Current Conditions -  °F | °C
As of 8:00 PM on Thursday 27 Nov 2014 (Local Time) from LEVS Reporting Station
Scattered Clouds Scattered Clouds  
Wind Chill: 50°   Ceiling: Unl
Heat Index: 50°   Visibility: 6mi
Dew Point: 48°   Wind: 7mph
Humidity: 94%   Direction: 120°ESE
Pressure: 29.35"   Gusts: NA
Location:  40.47°N, 3.87°W
Report Text: LEVS 271900Z 12006KT 9999 SCT020 SCT041 10/09 Q0994
Loading
Personal Weather Stations






























Interactive Weather Map New forecast layout! Learn more

10-Day Weather Forecast

Advertisements
Track Severe Weather on mobile